Alvadore, OR

1:02 AM PST on November 28, 2014 (GMT -0800)
Mahlon Sweet | Change Station
CLOSE
Current Station
Airport
Location: Eugene,
Elevation: 374 ft
Nearby Weather Stations
Active Advisory: Special Statement Active Notice: Record Report

Elev 374 ft 44.12 °N, 123.21 °W | Updated 8 minutes ago

Overcast
Overcast
53 °F
Feels Like 53 °F
N
9
Wind Variable Wind from SSW

Today
High -- | Low -- °F
--% Chance of Precip.
Yesterday
High -- | Low -- °F
Precip. -- in
7:24 AM 4:36 PM
Waxing Crescent, 38% visible
Pressure 29.82 in
Visibility 10.0 miles
Clouds Scattered Clouds 4900 ft
Overcast 5500 ft
Dew Point 49 °F
Humidity 86%
Rainfall 0.00 in
Snow Depth Not available.
UV 0 out of 12
Pollen .10 out of 12
Air Quality Not available.
Flu Activity Not available.
METAR KEUG 280854Z AUTO 20008KT 10SM SCT049 OVC055 12/09 A2982 RMK AO2 SLP097 T01170094 58018

More Conditions Fewer Conditions

Pressure 29.82 in
Visibility 10.0 miles
Clouds Scattered Clouds 4900 ft
Overcast 5500 ft
Dew Point 49 °F
Humidity 86%
Rainfall 0.00 in
Snow Depth Not available.
UV 0 out of 12
Pollen .10 out of 12
Air Quality Not available.
Flu Activity Not available.
METAR KEUG 280854Z AUTO 20008KT 10SM SCT049 OVC055 12/09 A2982 RMK AO2 SLP097 T01170094 58018

More Conditions Fewer Conditions

10-Day Weather Forecast

Almanac

Astronomy

Nov. 28, 2014 Rise Set
Actual Time
Civil Twilight
Nautical Twilight
Astronomical Twilight
Moon
Length of Visible Light
Length of Day
Tomorrow will be .
, % of the Moon is Illuminated

Today's Extremes

State Highs State Lows

Community

WunderPhotos

Upload Photos

1,774,190 photos uploaded!

WunderBlogs® & News

Nearby

Air Quality

  Air Quality AQ Index Pollutant
Not available.

Snow Depth

Station Depth Elevation

Earthquake Activity

City Distance Mag. Time & Date
Minimum magnitude displayed is 2.5.

Coastal Water Temperatures

Place Temperature

Nearby Weather Stations